sensor_id;sensor_type;location;lat;lon;timestamp;P1;durP1;ratioP1;P2;durP2;ratioP2
28756;SDS011;44294;48.282;14.282;2022-07-29T00:01:57;5.47;;;4.80;;
28756;SDS011;44294;48.282;14.282;2022-07-29T00:04:44;5.57;;;5.00;;
28756;SDS011;44294;48.282;14.282;2022-07-29T00:07:31;5.83;;;4.60;;
28756;SDS011;44294;48.282;14.282;2022-07-29T00:10:19;5.63;;;4.53;;
28756;SDS011;44294;48.282;14.282;2022-07-29T00:13:06;7.47;;;5.00;;
28756;SDS011;44294;48.282;14.282;2022-07-29T00:15:53;7.20;;;5.13;;
28756;SDS011;44294;48.282;14.282;2022-07-29T00:18:41;6.60;;;5.33;;
28756;SDS011;44294;48.282;14.282;2022-07-29T00:21:28;6.87;;;5.20;;
28756;SDS011;44294;48.282;14.282;2022-07-29T00:24:16;7.97;;;5.27;;
28756;SDS011;44294;48.282;14.282;2022-07-29T00:27:03;6.27;;;5.30;;
28756;SDS011;44294;48.282;14.282;2022-07-29T00:29:51;9.40;;;5.40;;
28756;SDS011;44294;48.282;14.282;2022-07-29T00:32:38;9.90;;;5.50;;
28756;SDS011;44294;48.282;14.282;2022-07-29T00:35:25;10.30;;;5.60;;
28756;SDS011;44294;48.282;14.282;2022-07-29T00:38:31;8.53;;;5.03;;
28756;SDS011;44294;48.282;14.282;2022-07-29T00:41:18;11.00;;;5.20;;
28756;SDS011;44294;48.282;14.282;2022-07-29T00:44:05;7.20;;;5.20;;
28756;SDS011;44294;48.282;14.282;2022-07-29T00:46:53;7.47;;;5.67;;
28756;SDS011;44294;48.282;14.282;2022-07-29T00:49:41;6.03;;;5.20;;
28756;SDS011;44294;48.282;14.282;2022-07-29T00:52:28;8.40;;;5.10;;
28756;SDS011;44294;48.282;14.282;2022-07-29T00:55:16;8.23;;;5.07;;
28756;SDS011;44294;48.282;14.282;2022-07-29T00:58:03;6.83;;;5.27;;
28756;SDS011;44294;48.282;14.282;2022-07-29T01:00:51;9.70;;;5.10;;
28756;SDS011;44294;48.282;14.282;2022-07-29T01:03:39;5.57;;;4.90;;
28756;SDS011;44294;48.282;14.282;2022-07-29T01:06:26;6.83;;;5.50;;
28756;SDS011;44294;48.282;14.282;2022-07-29T01:09:14;7.33;;;5.33;;
28756;SDS011;44294;48.282;14.282;2022-07-29T01:12:01;7.10;;;5.07;;
28756;SDS011;44294;48.282;14.282;2022-07-29T01:14:49;6.00;;;5.40;;
28756;SDS011;44294;48.282;14.282;2022-07-29T01:20:44;6.20;;;5.57;;
28756;SDS011;44294;48.282;14.282;2022-07-29T01:23:33;7.23;;;5.80;;
28756;SDS011;44294;48.282;14.282;2022-07-29T01:26:38;5.70;;;5.17;;
28756;SDS011;44294;48.282;14.282;2022-07-29T01:32:18;8.43;;;5.67;;
28756;SDS011;44294;48.282;14.282;2022-07-29T01:35:14;6.63;;;5.40;;
28756;SDS011;44294;48.282;14.282;2022-07-29T01:38:09;9.10;;;5.40;;
28756;SDS011;44294;48.282;14.282;2022-07-29T01:40:51;8.10;;;5.30;;
28756;SDS011;44294;48.282;14.282;2022-07-29T01:43:42;8.97;;;5.53;;
28756;SDS011;44294;48.282;14.282;2022-07-29T01:46:33;7.90;;;5.67;;
28756;SDS011;44294;48.282;14.282;2022-07-29T01:49:21;7.13;;;5.70;;
28756;SDS011;44294;48.282;14.282;2022-07-29T01:52:11;6.60;;;5.90;;
28756;SDS011;44294;48.282;14.282;2022-07-29T01:54:58;6.43;;;5.80;;
28756;SDS011;44294;48.282;14.282;2022-07-29T01:57:47;7.53;;;6.00;;
28756;SDS011;44294;48.282;14.282;2022-07-29T02:00:35;7.00;;;5.73;;
28756;SDS011;44294;48.282;14.282;2022-07-29T02:03:23;14.30;;;5.70;;
28756;SDS011;44294;48.282;14.282;2022-07-29T02:06:11;8.13;;;5.70;;
28756;SDS011;44294;48.282;14.282;2022-07-29T02:08:59;6.47;;;5.70;;
28756;SDS011;44294;48.282;14.282;2022-07-29T02:11:48;8.30;;;6.17;;
28756;SDS011;44294;48.282;14.282;2022-07-29T02:14:38;9.40;;;6.10;;
28756;SDS011;44294;48.282;14.282;2022-07-29T02:17:26;7.53;;;5.90;;
28756;SDS011;44294;48.282;14.282;2022-07-29T02:20:14;9.23;;;6.07;;
28756;SDS011;44294;48.282;14.282;2022-07-29T02:23:02;6.60;;;5.90;;
28756;SDS011;44294;48.282;14.282;2022-07-29T02:25:55;7.17;;;5.97;;
28756;SDS011;44294;48.282;14.282;2022-07-29T02:28:42;7.10;;;5.83;;
28756;SDS011;44294;48.282;14.282;2022-07-29T02:31:31;6.77;;;6.07;;
28756;SDS011;44294;48.282;14.282;2022-07-29T02:34:19;7.53;;;6.37;;
28756;SDS011;44294;48.282;14.282;2022-07-29T02:37:08;8.97;;;6.57;;
28756;SDS011;44294;48.282;14.282;2022-07-29T02:39:56;8.80;;;6.20;;
28756;SDS011;44294;48.282;14.282;2022-07-29T02:42:44;11.43;;;7.77;;
28756;SDS011;44294;48.282;14.282;2022-07-29T02:45:33;15.30;;;6.40;;
28756;SDS011;44294;48.282;14.282;2022-07-29T02:48:27;8.50;;;6.17;;
28756;SDS011;44294;48.282;14.282;2022-07-29T02:51:14;7.17;;;6.27;;
28756;SDS011;44294;48.282;14.282;2022-07-29T02:54:01;7.30;;;6.00;;
28756;SDS011;44294;48.282;14.282;2022-07-29T02:56:50;9.03;;;6.40;;
28756;SDS011;44294;48.282;14.282;2022-07-29T02:59:41;8.27;;;6.53;;
28756;SDS011;44294;48.282;14.282;2022-07-29T03:02:28;6.77;;;6.03;;
28756;SDS011;44294;48.282;14.282;2022-07-29T03:05:17;7.53;;;6.23;;
28756;SDS011;44294;48.282;14.282;2022-07-29T03:08:05;7.43;;;6.60;;
28756;SDS011;44294;48.282;14.282;2022-07-29T03:10:53;7.30;;;6.37;;
28756;SDS011;44294;48.282;14.282;2022-07-29T03:13:42;8.37;;;6.50;;
28756;SDS011;44294;48.282;14.282;2022-07-29T03:16:29;8.37;;;6.20;;
28756;SDS011;44294;48.282;14.282;2022-07-29T03:19:17;8.70;;;6.60;;
28756;SDS011;44294;48.282;14.282;2022-07-29T03:22:04;8.43;;;6.90;;
28756;SDS011;44294;48.282;14.282;2022-07-29T03:24:52;8.93;;;6.53;;
28756;SDS011;44294;48.282;14.282;2022-07-29T03:27:39;7.20;;;6.40;;
28756;SDS011;44294;48.282;14.282;2022-07-29T03:30:27;8.17;;;6.70;;
28756;SDS011;44294;48.282;14.282;2022-07-29T03:33:16;9.07;;;6.70;;
28756;SDS011;44294;48.282;14.282;2022-07-29T03:36:03;7.83;;;7.00;;
28756;SDS011;44294;48.282;14.282;2022-07-29T03:38:51;8.43;;;6.80;;
28756;SDS011;44294;48.282;14.282;2022-07-29T03:41:39;7.37;;;6.63;;
28756;SDS011;44294;48.282;14.282;2022-07-29T03:44:28;10.07;;;6.80;;
28756;SDS011;44294;48.282;14.282;2022-07-29T03:47:16;8.00;;;6.57;;
28756;SDS011;44294;48.282;14.282;2022-07-29T03:50:08;8.43;;;7.10;;
28756;SDS011;44294;48.282;14.282;2022-07-29T03:52:55;8.67;;;6.77;;
28756;SDS011;44294;48.282;14.282;2022-07-29T03:55:44;9.00;;;7.03;;
28756;SDS011;44294;48.282;14.282;2022-07-29T03:58:32;8.20;;;7.10;;
28756;SDS011;44294;48.282;14.282;2022-07-29T04:01:19;8.50;;;6.67;;
28756;SDS011;44294;48.282;14.282;2022-07-29T04:04:07;7.40;;;6.70;;
28756;SDS011;44294;48.282;14.282;2022-07-29T04:06:55;9.27;;;6.80;;
28756;SDS011;44294;48.282;14.282;2022-07-29T04:09:42;7.83;;;6.70;;
28756;SDS011;44294;48.282;14.282;2022-07-29T04:12:29;7.57;;;6.77;;
28756;SDS011;44294;48.282;14.282;2022-07-29T04:15:17;8.83;;;7.00;;
28756;SDS011;44294;48.282;14.282;2022-07-29T04:18:04;9.57;;;6.80;;
28756;SDS011;44294;48.282;14.282;2022-07-29T04:20:52;9.73;;;6.77;;
28756;SDS011;44294;48.282;14.282;2022-07-29T04:23:39;9.00;;;7.30;;
28756;SDS011;44294;48.282;14.282;2022-07-29T04:26:27;7.93;;;6.87;;
28756;SDS011;44294;48.282;14.282;2022-07-29T04:29:14;8.90;;;7.17;;
28756;SDS011;44294;48.282;14.282;2022-07-29T04:32:02;9.37;;;7.03;;
28756;SDS011;44294;48.282;14.282;2022-07-29T04:34:49;7.40;;;6.37;;
28756;SDS011;44294;48.282;14.282;2022-07-29T04:37:36;8.00;;;6.60;;
28756;SDS011;44294;48.282;14.282;2022-07-29T04:40:24;8.40;;;6.10;;
28756;SDS011;44294;48.282;14.282;2022-07-29T04:43:11;9.00;;;6.30;;
28756;SDS011;44294;48.282;14.282;2022-07-29T04:45:59;8.33;;;6.47;;
28756;SDS011;44294;48.282;14.282;2022-07-29T04:48:46;6.83;;;6.13;;
28756;SDS011;44294;48.282;14.282;2022-07-29T04:51:34;7.10;;;6.17;;
28756;SDS011;44294;48.282;14.282;2022-07-29T04:54:21;8.53;;;6.20;;
28756;SDS011;44294;48.282;14.282;2022-07-29T04:57:08;8.27;;;5.97;;
28756;SDS011;44294;48.282;14.282;2022-07-29T04:59:56;10.43;;;6.13;;
28756;SDS011;44294;48.282;14.282;2022-07-29T05:02:43;7.37;;;6.13;;
28756;SDS011;44294;48.282;14.282;2022-07-29T05:05:30;9.90;;;6.57;;
28756;SDS011;44294;48.282;14.282;2022-07-29T05:08:18;6.97;;;6.27;;
28756;SDS011;44294;48.282;14.282;2022-07-29T05:11:05;9.20;;;6.40;;
28756;SDS011;44294;48.282;14.282;2022-07-29T05:13:52;8.87;;;6.23;;
28756;SDS011;44294;48.282;14.282;2022-07-29T05:16:40;12.50;;;6.60;;
28756;SDS011;44294;48.282;14.282;2022-07-29T05:19:28;9.10;;;6.30;;
28756;SDS011;44294;48.282;14.282;2022-07-29T05:22:15;9.23;;;6.43;;
28756;SDS011;44294;48.282;14.282;2022-07-29T05:25:03;7.83;;;6.10;;
28756;SDS011;44294;48.282;14.282;2022-07-29T05:27:50;9.17;;;6.40;;
28756;SDS011;44294;48.282;14.282;2022-07-29T05:30:38;7.23;;;6.47;;
28756;SDS011;44294;48.282;14.282;2022-07-29T05:33:25;7.90;;;6.20;;
28756;SDS011;44294;48.282;14.282;2022-07-29T05:36:13;7.60;;;6.30;;
28756;SDS011;44294;48.282;14.282;2022-07-29T05:39:00;7.47;;;6.20;;
28756;SDS011;44294;48.282;14.282;2022-07-29T05:41:48;8.57;;;6.30;;
28756;SDS011;44294;48.282;14.282;2022-07-29T05:44:39;9.73;;;6.30;;
28756;SDS011;44294;48.282;14.282;2022-07-29T05:47:26;7.30;;;6.27;;
28756;SDS011;44294;48.282;14.282;2022-07-29T05:50:14;9.03;;;6.40;;
28756;SDS011;44294;48.282;14.282;2022-07-29T05:53:01;10.30;;;6.80;;
28756;SDS011;44294;48.282;14.282;2022-07-29T05:55:49;8.13;;;6.47;;
28756;SDS011;44294;48.282;14.282;2022-07-29T05:58:36;8.80;;;6.50;;
28756;SDS011;44294;48.282;14.282;2022-07-29T06:01:24;7.03;;;6.27;;
28756;SDS011;44294;48.282;14.282;2022-07-29T06:04:11;8.00;;;6.47;;
28756;SDS011;44294;48.282;14.282;2022-07-29T06:06:58;8.60;;;6.70;;
28756;SDS011;44294;48.282;14.282;2022-07-29T06:09:46;9.47;;;6.30;;
28756;SDS011;44294;48.282;14.282;2022-07-29T06:12:33;7.63;;;5.90;;
28756;SDS011;44294;48.282;14.282;2022-07-29T06:15:21;8.93;;;6.30;;
28756;SDS011;44294;48.282;14.282;2022-07-29T06:18:08;7.90;;;6.30;;
28756;SDS011;44294;48.282;14.282;2022-07-29T06:20:56;8.07;;;6.20;;
28756;SDS011;44294;48.282;14.282;2022-07-29T06:23:44;10.50;;;6.03;;
28756;SDS011;44294;48.282;14.282;2022-07-29T06:26:32;7.23;;;5.80;;
28756;SDS011;44294;48.282;14.282;2022-07-29T06:29:19;7.10;;;5.70;;
28756;SDS011;44294;48.282;14.282;2022-07-29T06:32:07;7.93;;;5.87;;
28756;SDS011;44294;48.282;14.282;2022-07-29T06:34:55;7.50;;;5.70;;
28756;SDS011;44294;48.282;14.282;2022-07-29T06:37:42;6.77;;;5.80;;
28756;SDS011;44294;48.282;14.282;2022-07-29T06:40:30;7.87;;;6.10;;
28756;SDS011;44294;48.282;14.282;2022-07-29T06:43:38;7.77;;;6.03;;
28756;SDS011;44294;48.282;14.282;2022-07-29T06:46:27;9.47;;;5.77;;
28756;SDS011;44294;48.282;14.282;2022-07-29T06:49:15;7.20;;;5.90;;
28756;SDS011;44294;48.282;14.282;2022-07-29T06:52:03;8.23;;;5.80;;
28756;SDS011;44294;48.282;14.282;2022-07-29T06:54:50;6.83;;;5.80;;
28756;SDS011;44294;48.282;14.282;2022-07-29T06:57:37;6.87;;;5.67;;
28756;SDS011;44294;48.282;14.282;2022-07-29T07:00:25;7.13;;;5.77;;
28756;SDS011;44294;48.282;14.282;2022-07-29T07:03:12;8.63;;;5.90;;
28756;SDS011;44294;48.282;14.282;2022-07-29T07:05:59;7.77;;;5.83;;
28756;SDS011;44294;48.282;14.282;2022-07-29T07:08:47;8.97;;;5.83;;
28756;SDS011;44294;48.282;14.282;2022-07-29T07:11:34;7.27;;;6.20;;
28756;SDS011;44294;48.282;14.282;2022-07-29T07:14:22;9.63;;;6.17;;
28756;SDS011;44294;48.282;14.282;2022-07-29T07:17:09;9.30;;;6.63;;
28756;SDS011;44294;48.282;14.282;2022-07-29T07:19:57;8.90;;;6.00;;
28756;SDS011;44294;48.282;14.282;2022-07-29T07:22:44;8.63;;;6.60;;
28756;SDS011;44294;48.282;14.282;2022-07-29T07:25:31;8.37;;;6.10;;
28756;SDS011;44294;48.282;14.282;2022-07-29T07:28:19;10.90;;;6.40;;
28756;SDS011;44294;48.282;14.282;2022-07-29T07:31:06;8.00;;;6.50;;
28756;SDS011;44294;48.282;14.282;2022-07-29T07:33:53;11.97;;;6.73;;
28756;SDS011;44294;48.282;14.282;2022-07-29T07:36:41;12.70;;;7.77;;
28756;SDS011;44294;48.282;14.282;2022-07-29T07:39:28;11.70;;;6.93;;
28756;SDS011;44294;48.282;14.282;2022-07-29T07:42:15;11.73;;;6.83;;
28756;SDS011;44294;48.282;14.282;2022-07-29T07:45:03;11.23;;;7.03;;
28756;SDS011;44294;48.282;14.282;2022-07-29T07:47:52;9.33;;;6.10;;
28756;SDS011;44294;48.282;14.282;2022-07-29T07:50:39;9.00;;;5.70;;
28756;SDS011;44294;48.282;14.282;2022-07-29T07:53:27;9.53;;;5.97;;
28756;SDS011;44294;48.282;14.282;2022-07-29T07:56:16;11.30;;;6.33;;
28756;SDS011;44294;48.282;14.282;2022-07-29T07:59:03;9.77;;;5.50;;
28756;SDS011;44294;48.282;14.282;2022-07-29T08:01:50;8.60;;;6.20;;
28756;SDS011;44294;48.282;14.282;2022-07-29T08:04:37;13.57;;;6.30;;
28756;SDS011;44294;48.282;14.282;2022-07-29T08:07:26;10.03;;;5.97;;
28756;SDS011;44294;48.282;14.282;2022-07-29T08:10:15;8.40;;;6.03;;
28756;SDS011;44294;48.282;14.282;2022-07-29T08:13:22;11.43;;;6.10;;
28756;SDS011;44294;48.282;14.282;2022-07-29T08:16:09;10.83;;;6.17;;
28756;SDS011;44294;48.282;14.282;2022-07-29T08:18:58;12.63;;;6.13;;
28756;SDS011;44294;48.282;14.282;2022-07-29T08:21:45;8.63;;;6.07;;
28756;SDS011;44294;48.282;14.282;2022-07-29T08:24:33;12.53;;;6.97;;
28756;SDS011;44294;48.282;14.282;2022-07-29T08:27:29;12.03;;;6.23;;
28756;SDS011;44294;48.282;14.282;2022-07-29T08:30:18;7.27;;;5.77;;
28756;SDS011;44294;48.282;14.282;2022-07-29T08:33:05;8.43;;;5.77;;
28756;SDS011;44294;48.282;14.282;2022-07-29T08:35:53;8.63;;;5.93;;
28756;SDS011;44294;48.282;14.282;2022-07-29T08:38:40;6.60;;;5.80;;
28756;SDS011;44294;48.282;14.282;2022-07-29T08:41:27;9.23;;;5.33;;
28756;SDS011;44294;48.282;14.282;2022-07-29T08:44:15;10.10;;;6.03;;
28756;SDS011;44294;48.282;14.282;2022-07-29T08:47:03;6.33;;;5.60;;
28756;SDS011;44294;48.282;14.282;2022-07-29T08:49:50;9.03;;;6.03;;
28756;SDS011;44294;48.282;14.282;2022-07-29T08:52:39;9.73;;;5.90;;
28756;SDS011;44294;48.282;14.282;2022-07-29T08:55:26;7.27;;;5.77;;
28756;SDS011;44294;48.282;14.282;2022-07-29T08:58:14;9.40;;;5.80;;
28756;SDS011;44294;48.282;14.282;2022-07-29T09:01:02;10.37;;;5.80;;
28756;SDS011;44294;48.282;14.282;2022-07-29T09:03:49;8.47;;;6.00;;
28756;SDS011;44294;48.282;14.282;2022-07-29T09:06:37;7.73;;;5.73;;
28756;SDS011;44294;48.282;14.282;2022-07-29T09:09:26;6.63;;;5.90;;
28756;SDS011;44294;48.282;14.282;2022-07-29T09:12:13;8.37;;;6.07;;
28756;SDS011;44294;48.282;14.282;2022-07-29T09:15:01;7.83;;;6.03;;
28756;SDS011;44294;48.282;14.282;2022-07-29T09:17:49;7.87;;;5.80;;
28756;SDS011;44294;48.282;14.282;2022-07-29T09:20:36;8.03;;;6.07;;
28756;SDS011;44294;48.282;14.282;2022-07-29T09:23:58;8.50;;;5.83;;
28756;SDS011;44294;48.282;14.282;2022-07-29T09:26:31;9.27;;;6.17;;
28756;SDS011;44294;48.282;14.282;2022-07-29T09:29:20;9.20;;;6.20;;
28756;SDS011;44294;48.282;14.282;2022-07-29T09:32:08;12.63;;;7.10;;
28756;SDS011;44294;48.282;14.282;2022-07-29T09:38:11;14.23;;;7.43;;
28756;SDS011;44294;48.282;14.282;2022-07-29T09:41:00;17.07;;;9.13;;
28756;SDS011;44294;48.282;14.282;2022-07-29T09:43:57;14.07;;;8.33;;
28756;SDS011;44294;48.282;14.282;2022-07-29T09:47:03;16.33;;;8.17;;
28756;SDS011;44294;48.282;14.282;2022-07-29T09:49:49;13.47;;;8.63;;
28756;SDS011;44294;48.282;14.282;2022-07-29T09:52:29;10.17;;;7.30;;
28756;SDS011;44294;48.282;14.282;2022-07-29T09:55:17;11.87;;;7.80;;
28756;SDS011;44294;48.282;14.282;2022-07-29T09:58:17;23.40;;;9.43;;
28756;SDS011;44294;48.282;14.282;2022-07-29T10:01:05;15.80;;;8.50;;
28756;SDS011;44294;48.282;14.282;2022-07-29T10:03:53;18.03;;;10.40;;
28756;SDS011;44294;48.282;14.282;2022-07-29T10:06:59;17.17;;;10.07;;
28756;SDS011;44294;48.282;14.282;2022-07-29T10:09:52;14.43;;;9.07;;
28756;SDS011;44294;48.282;14.282;2022-07-29T10:13:20;17.90;;;10.77;;
28756;SDS011;44294;48.282;14.282;2022-07-29T10:15:31;14.43;;;8.43;;
28756;SDS011;44294;48.282;14.282;2022-07-29T10:18:19;17.37;;;8.40;;
28756;SDS011;44294;48.282;14.282;2022-07-29T10:21:06;14.70;;;8.00;;
28756;SDS011;44294;48.282;14.282;2022-07-29T10:23:53;10.87;;;7.40;;
28756;SDS011;44294;48.282;14.282;2022-07-29T10:26:41;13.27;;;7.30;;
28756;SDS011;44294;48.282;14.282;2022-07-29T10:29:28;12.57;;;7.00;;
28756;SDS011;44294;48.282;14.282;2022-07-29T10:44:16;13.47;;;7.70;;
28756;SDS011;44294;48.282;14.282;2022-07-29T10:47:04;12.90;;;7.03;;
28756;SDS011;44294;48.282;14.282;2022-07-29T10:49:55;12.87;;;7.00;;
28756;SDS011;44294;48.282;14.282;2022-07-29T10:55:40;9.27;;;6.93;;
28756;SDS011;44294;48.282;14.282;2022-07-29T10:58:29;10.37;;;6.43;;
28756;SDS011;44294;48.282;14.282;2022-07-29T11:01:38;11.70;;;6.73;;
28756;SDS011;44294;48.282;14.282;2022-07-29T11:04:05;10.97;;;6.90;;
28756;SDS011;44294;48.282;14.282;2022-07-29T11:10:34;8.73;;;5.50;;
28756;SDS011;44294;48.282;14.282;2022-07-29T11:21:44;9.87;;;5.17;;
28756;SDS011;44294;48.282;14.282;2022-07-29T11:24:37;7.27;;;5.20;;
28756;SDS011;44294;48.282;14.282;2022-07-29T11:27:25;11.70;;;5.73;;
28756;SDS011;44294;48.282;14.282;2022-07-29T11:30:13;6.40;;;5.13;;
28756;SDS011;44294;48.282;14.282;2022-07-29T11:33:01;8.67;;;5.07;;
28756;SDS011;44294;48.282;14.282;2022-07-29T11:36:06;7.53;;;5.20;;
28756;SDS011;44294;48.282;14.282;2022-07-29T11:38:37;7.27;;;4.87;;
28756;SDS011;44294;48.282;14.282;2022-07-29T11:41:25;7.23;;;5.10;;
28756;SDS011;44294;48.282;14.282;2022-07-29T11:44:16;5.63;;;4.43;;
28756;SDS011;44294;48.282;14.282;2022-07-29T11:47:03;5.97;;;4.10;;
28756;SDS011;44294;48.282;14.282;2022-07-29T11:49:52;5.07;;;4.10;;
28756;SDS011;44294;48.282;14.282;2022-07-29T11:52:41;4.43;;;3.87;;
28756;SDS011;44294;48.282;14.282;2022-07-29T11:55:32;6.27;;;4.37;;
28756;SDS011;44294;48.282;14.282;2022-07-29T11:58:22;6.00;;;4.50;;
28756;SDS011;44294;48.282;14.282;2022-07-29T12:01:12;6.20;;;5.03;;
28756;SDS011;44294;48.282;14.282;2022-07-29T12:04:09;6.40;;;5.80;;
28756;SDS011;44294;48.282;14.282;2022-07-29T12:06:53;6.07;;;4.47;;
28756;SDS011;44294;48.282;14.282;2022-07-29T12:09:48;7.97;;;4.20;;
28756;SDS011;44294;48.282;14.282;2022-07-29T12:12:30;4.97;;;4.20;;
28756;SDS011;44294;48.282;14.282;2022-07-29T12:15:17;5.70;;;4.40;;
28756;SDS011;44294;48.282;14.282;2022-07-29T12:18:10;6.53;;;4.20;;
28756;SDS011;44294;48.282;14.282;2022-07-29T12:20:58;4.10;;;3.70;;
28756;SDS011;44294;48.282;14.282;2022-07-29T12:23:52;6.93;;;3.90;;
28756;SDS011;44294;48.282;14.282;2022-07-29T12:26:35;6.27;;;3.80;;
28756;SDS011;44294;48.282;14.282;2022-07-29T12:29:23;4.17;;;3.73;;
28756;SDS011;44294;48.282;14.282;2022-07-29T12:32:10;6.97;;;3.70;;
28756;SDS011;44294;48.282;14.282;2022-07-29T12:34:58;4.40;;;4.00;;
28756;SDS011;44294;48.282;14.282;2022-07-29T12:37:46;3.80;;;3.50;;
28756;SDS011;44294;48.282;14.282;2022-07-29T12:40:37;4.00;;;3.55;;
28756;SDS011;44294;48.282;14.282;2022-07-29T12:43:25;3.80;;;3.40;;
28756;SDS011;44294;48.282;14.282;2022-07-29T12:46:13;5.90;;;3.60;;
28756;SDS011;44294;48.282;14.282;2022-07-29T12:49:01;6.50;;;3.53;;
28756;SDS011;44294;48.282;14.282;2022-07-29T12:51:49;3.47;;;3.00;;
28756;SDS011;44294;48.282;14.282;2022-07-29T12:54:36;3.83;;;3.30;;
28756;SDS011;44294;48.282;14.282;2022-07-29T12:57:26;5.30;;;3.73;;
28756;SDS011;44294;48.282;14.282;2022-07-29T13:00:14;4.12;;;3.30;;
28756;SDS011;44294;48.282;14.282;2022-07-29T13:03:01;5.80;;;3.90;;
28756;SDS011;44294;48.282;14.282;2022-07-29T13:05:48;4.87;;;3.75;;
28756;SDS011;44294;48.282;14.282;2022-07-29T13:08:36;4.37;;;3.97;;
28756;SDS011;44294;48.282;14.282;2022-07-29T13:11:27;3.90;;;3.50;;
28756;SDS011;44294;48.282;14.282;2022-07-29T13:14:34;17.57;;;13.90;;
28756;SDS011;44294;48.282;14.282;2022-07-29T13:17:22;3.90;;;3.60;;
28756;SDS011;44294;48.282;14.282;2022-07-29T13:20:11;4.00;;;3.50;;
28756;SDS011;44294;48.282;14.282;2022-07-29T13:23:02;7.28;;;3.65;;
28756;SDS011;44294;48.282;14.282;2022-07-29T13:25:49;6.42;;;3.72;;
28756;SDS011;44294;48.282;14.282;2022-07-29T13:28:37;4.65;;;3.65;;
28756;SDS011;44294;48.282;14.282;2022-07-29T13:31:24;5.08;;;3.67;;
28756;SDS011;44294;48.282;14.282;2022-07-29T13:34:11;5.93;;;4.93;;
28756;SDS011;44294;48.282;14.282;2022-07-29T13:36:59;5.22;;;4.00;;
28756;SDS011;44294;48.282;14.282;2022-07-29T13:39:47;5.85;;;3.70;;
28756;SDS011;44294;48.282;14.282;2022-07-29T13:42:34;5.20;;;3.42;;
28756;SDS011;44294;48.282;14.282;2022-07-29T13:45:21;5.50;;;3.67;;
28756;SDS011;44294;48.282;14.282;2022-07-29T13:48:09;5.22;;;4.00;;
28756;SDS011;44294;48.282;14.282;2022-07-29T13:50:57;6.33;;;4.03;;
28756;SDS011;44294;48.282;14.282;2022-07-29T13:53:44;5.50;;;4.00;;
28756;SDS011;44294;48.282;14.282;2022-07-29T13:56:32;9.10;;;5.40;;
28756;SDS011;44294;48.282;14.282;2022-07-29T13:59:19;6.80;;;5.05;;
28756;SDS011;44294;48.282;14.282;2022-07-29T14:02:06;8.03;;;4.87;;
28756;SDS011;44294;48.282;14.282;2022-07-29T14:04:54;6.30;;;4.80;;
28756;SDS011;44294;48.282;14.282;2022-07-29T14:07:41;10.13;;;5.40;;
28756;SDS011;44294;48.282;14.282;2022-07-29T14:10:28;8.13;;;4.70;;
28756;SDS011;44294;48.282;14.282;2022-07-29T14:13:16;7.10;;;5.17;;
28756;SDS011;44294;48.282;14.282;2022-07-29T14:16:03;9.67;;;6.70;;
28756;SDS011;44294;48.282;14.282;2022-07-29T14:18:51;8.63;;;5.25;;
28756;SDS011;44294;48.282;14.282;2022-07-29T14:21:38;16.93;;;5.90;;
28756;SDS011;44294;48.282;14.282;2022-07-29T14:24:26;13.27;;;5.23;;
28756;SDS011;44294;48.282;14.282;2022-07-29T14:27:13;8.23;;;5.22;;
28756;SDS011;44294;48.282;14.282;2022-07-29T14:30:00;7.30;;;5.40;;
28756;SDS011;44294;48.282;14.282;2022-07-29T14:32:48;6.97;;;5.00;;
28756;SDS011;44294;48.282;14.282;2022-07-29T14:35:35;5.70;;;4.43;;
28756;SDS011;44294;48.282;14.282;2022-07-29T14:38:23;6.97;;;4.93;;
28756;SDS011;44294;48.282;14.282;2022-07-29T14:41:10;7.65;;;4.70;;
28756;SDS011;44294;48.282;14.282;2022-07-29T14:43:58;7.78;;;4.42;;
28756;SDS011;44294;48.282;14.282;2022-07-29T14:46:47;7.63;;;4.40;;
28756;SDS011;44294;48.282;14.282;2022-07-29T14:49:34;5.67;;;4.30;;
28756;SDS011;44294;48.282;14.282;2022-07-29T14:52:22;6.97;;;4.20;;
28756;SDS011;44294;48.282;14.282;2022-07-29T14:55:09;5.43;;;4.20;;
28756;SDS011;44294;48.282;14.282;2022-07-29T14:57:56;6.30;;;4.20;;
28756;SDS011;44294;48.282;14.282;2022-07-29T15:00:45;6.70;;;3.60;;
28756;SDS011;44294;48.282;14.282;2022-07-29T15:03:32;5.23;;;3.67;;
28756;SDS011;44294;48.282;14.282;2022-07-29T15:06:19;4.10;;;3.70;;
28756;SDS011;44294;48.282;14.282;2022-07-29T15:09:07;7.80;;;4.00;;
28756;SDS011;44294;48.282;14.282;2022-07-29T15:11:54;5.53;;;4.20;;
28756;SDS011;44294;48.282;14.282;2022-07-29T15:14:42;4.10;;;3.63;;
28756;SDS011;44294;48.282;14.282;2022-07-29T15:17:29;5.77;;;4.03;;
28756;SDS011;44294;48.282;14.282;2022-07-29T15:20:16;7.97;;;4.83;;
28756;SDS011;44294;48.282;14.282;2022-07-29T15:23:04;7.80;;;4.10;;
28756;SDS011;44294;48.282;14.282;2022-07-29T15:25:51;4.60;;;3.77;;
28756;SDS011;44294;48.282;14.282;2022-07-29T15:28:38;4.10;;;3.70;;
28756;SDS011;44294;48.282;14.282;2022-07-29T15:31:26;4.47;;;3.67;;
28756;SDS011;44294;48.282;14.282;2022-07-29T15:34:13;6.27;;;3.90;;
28756;SDS011;44294;48.282;14.282;2022-07-29T15:37:01;3.90;;;3.57;;
28756;SDS011;44294;48.282;14.282;2022-07-29T15:39:48;5.27;;;3.53;;
28756;SDS011;44294;48.282;14.282;2022-07-29T15:42:36;4.50;;;3.20;;
28756;SDS011;44294;48.282;14.282;2022-07-29T15:45:23;4.27;;;3.50;;
28756;SDS011;44294;48.282;14.282;2022-07-29T15:48:11;4.47;;;3.50;;
28756;SDS011;44294;48.282;14.282;2022-07-29T15:50:59;4.23;;;3.33;;
28756;SDS011;44294;48.282;14.282;2022-07-29T15:53:46;3.50;;;3.20;;
28756;SDS011;44294;48.282;14.282;2022-07-29T15:56:33;3.53;;;3.00;;
28756;SDS011;44294;48.282;14.282;2022-07-29T15:59:21;5.37;;;3.20;;
28756;SDS011;44294;48.282;14.282;2022-07-29T16:02:08;5.37;;;3.67;;
28756;SDS011;44294;48.282;14.282;2022-07-29T16:04:56;4.17;;;3.43;;
28756;SDS011;44294;48.282;14.282;2022-07-29T16:07:43;4.77;;;3.20;;
28756;SDS011;44294;48.282;14.282;2022-07-29T16:10:31;6.60;;;3.60;;
28756;SDS011;44294;48.282;14.282;2022-07-29T16:13:18;6.00;;;3.37;;
28756;SDS011;44294;48.282;14.282;2022-07-29T16:16:05;4.10;;;3.30;;
28756;SDS011;44294;48.282;14.282;2022-07-29T16:18:53;3.60;;;3.30;;
28756;SDS011;44294;48.282;14.282;2022-07-29T16:21:40;4.27;;;3.20;;
28756;SDS011;44294;48.282;14.282;2022-07-29T16:24:28;4.03;;;3.63;;
28756;SDS011;44294;48.282;14.282;2022-07-29T16:27:16;3.80;;;3.40;;
28756;SDS011;44294;48.282;14.282;2022-07-29T16:30:04;3.60;;;3.30;;
28756;SDS011;44294;48.282;14.282;2022-07-29T16:32:54;3.90;;;3.17;;
28756;SDS011;44294;48.282;14.282;2022-07-29T16:35:41;3.67;;;3.33;;
28756;SDS011;44294;48.282;14.282;2022-07-29T16:38:28;5.37;;;3.80;;
28756;SDS011;44294;48.282;14.282;2022-07-29T16:41:16;3.80;;;3.40;;
28756;SDS011;44294;48.282;14.282;2022-07-29T16:44:03;4.40;;;3.77;;
28756;SDS011;44294;48.282;14.282;2022-07-29T16:46:50;3.90;;;3.57;;
28756;SDS011;44294;48.282;14.282;2022-07-29T16:49:38;6.93;;;3.80;;
28756;SDS011;44294;48.282;14.282;2022-07-29T16:52:25;7.23;;;3.80;;
28756;SDS011;44294;48.282;14.282;2022-07-29T16:55:12;4.40;;;3.70;;
28756;SDS011;44294;48.282;14.282;2022-07-29T16:58:00;6.40;;;3.60;;
28756;SDS011;44294;48.282;14.282;2022-07-29T17:00:47;10.03;;;4.40;;
28756;SDS011;44294;48.282;14.282;2022-07-29T17:03:34;5.07;;;4.50;;
28756;SDS011;44294;48.282;14.282;2022-07-29T17:06:23;5.63;;;4.23;;
28756;SDS011;44294;48.282;14.282;2022-07-29T17:09:11;5.00;;;4.50;;
28756;SDS011;44294;48.282;14.282;2022-07-29T17:12:00;5.00;;;4.50;;
28756;SDS011;44294;48.282;14.282;2022-07-29T17:14:48;5.27;;;3.90;;